sensor_id;sensor_type;location;lat;lon;timestamp;pressure;altitude;pressure_sealevel;temperature;humidity
44001;BME280;29660;42.892;24.710;2023-10-19T00:04:51;97062.81;;;5.58;100.00
44001;BME280;29660;42.892;24.710;2023-10-19T00:10:13;97056.69;;;5.52;100.00
44001;BME280;29660;42.892;24.710;2023-10-19T00:15:39;97045.81;;;5.49;100.00
44001;BME280;29660;42.892;24.710;2023-10-19T00:21:10;96690.78;;;3.30;100.00
44001;BME280;29660;42.892;24.710;2023-10-19T00:26:49;96996.38;;;5.17;100.00
44001;BME280;29660;42.892;24.710;2023-10-19T00:32:15;97029.03;;;5.33;100.00
44001;BME280;29660;42.892;24.710;2023-10-19T00:37:40;96896.97;;;4.52;100.00
44001;BME280;29660;42.892;24.710;2023-10-19T00:43:04;97025.84;;;5.31;100.00
44001;BME280;29660;42.892;24.710;2023-10-19T00:48:34;96892.50;;;4.52;100.00
44001;BME280;29660;42.892;24.710;2023-10-19T00:59:27;97011.47;;;5.22;100.00
44001;BME280;29660;42.892;24.710;2023-10-19T01:04:54;96988.56;;;5.00;100.00
44001;BME280;29660;42.892;24.710;2023-10-19T01:10:26;97007.16;;;5.10;100.00
44001;BME280;29660;42.892;24.710;2023-10-19T01:15:50;97014.75;;;5.02;100.00
44001;BME280;29660;42.892;24.710;2023-10-19T01:21:13;96999.94;;;5.01;100.00
44001;BME280;29660;42.892;24.710;2023-10-19T01:26:35;96994.84;;;4.94;100.00
44001;BME280;29660;42.892;24.710;2023-10-19T01:31:59;97005.88;;;4.86;100.00
44001;BME280;29660;42.892;24.710;2023-10-19T01:37:30;96907.00;;;4.23;100.00
44001;BME280;29660;42.892;24.710;2023-10-19T01:42:52;97013.47;;;4.77;100.00
44001;BME280;29660;42.892;24.710;2023-10-19T01:48:14;96996.81;;;4.77;100.00
44001;BME280;29660;42.892;24.710;2023-10-19T01:53:39;96996.81;;;4.77;100.00
44001;BME280;29660;42.892;24.710;2023-10-19T01:59:03;96982.09;;;4.59;100.00
44001;BME280;29660;42.892;24.710;2023-10-19T02:04:30;96858.06;;;3.88;100.00
44001;BME280;29660;42.892;24.710;2023-10-19T02:09:57;96508.06;;;1.55;100.00
44001;BME280;29660;42.892;24.710;2023-10-19T02:15:19;96993.75;;;4.63;100.00
44001;BME280;29660;42.892;24.710;2023-10-19T02:20:44;96992.97;;;4.62;100.00
44001;BME280;29660;42.892;24.710;2023-10-19T02:26:10;96992.97;;;4.62;100.00
44001;BME280;29660;42.892;24.710;2023-10-19T02:31:36;96999.28;;;4.61;100.00
44001;BME280;29660;42.892;24.710;2023-10-19T02:37:05;96899.78;;;3.91;100.00
44001;BME280;29660;42.892;24.710;2023-10-19T02:42:27;96998.63;;;4.49;100.00
44001;BME280;29660;42.892;24.710;2023-10-19T02:47:49;96875.63;;;3.55;100.00
44001;BME280;29660;42.892;24.710;2023-10-19T02:53:12;96995.88;;;4.39;100.00
44001;BME280;29660;42.892;24.710;2023-10-19T02:58:35;97011.41;;;4.35;100.00
44001;BME280;29660;42.892;24.710;2023-10-19T03:03:57;96988.22;;;4.37;100.00
44001;BME280;29660;42.892;24.710;2023-10-19T03:09:22;96855.47;;;3.49;100.00
44001;BME280;29660;42.892;24.710;2023-10-19T03:14:47;96989.88;;;4.22;100.00
44001;BME280;29660;42.892;24.710;2023-10-19T03:20:11;96866.34;;;3.31;100.00
44001;BME280;29660;42.892;24.710;2023-10-19T03:25:33;96897.25;;;3.57;100.00
44001;BME280;29660;42.892;24.710;2023-10-19T03:31:33;96993.44;;;4.10;100.00
44001;BME280;29660;42.892;24.710;2023-10-19T03:37:05;96997.53;;;4.23;100.00
44001;BME280;29660;42.892;24.710;2023-10-19T03:42:28;96951.25;;;4.15;100.00
44001;BME280;29660;42.892;24.710;2023-10-19T03:47:54;96371.31;;;0.39;100.00
44001;BME280;29660;42.892;24.710;2023-10-19T03:53:18;96839.44;;;3.51;100.00
44001;BME280;29660;42.892;24.710;2023-10-19T03:58:40;96961.00;;;4.37;100.00
44001;BME280;29660;42.892;24.710;2023-10-19T04:04:06;96953.53;;;4.29;100.00
44001;BME280;29660;42.892;24.710;2023-10-19T04:09:28;96994.09;;;4.45;100.00
44001;BME280;29660;42.892;24.710;2023-10-19T04:14:51;96962.72;;;4.48;100.00
44001;BME280;29660;42.892;24.710;2023-10-19T04:20:18;96809.69;;;3.55;100.00
44001;BME280;29660;42.892;24.710;2023-10-19T04:25:43;96929.81;;;4.34;100.00
44001;BME280;29660;42.892;24.710;2023-10-19T04:31:08;96926.63;;;4.32;100.00
44001;BME280;29660;42.892;24.710;2023-10-19T04:36:35;96940.72;;;4.42;100.00
44001;BME280;29660;42.892;24.710;2023-10-19T04:41:58;96941.28;;;4.45;100.00
44001;BME280;29660;42.892;24.710;2023-10-19T04:47:20;96943.84;;;4.39;100.00
44001;BME280;29660;42.892;24.710;2023-10-19T04:52:45;96833.03;;;3.68;100.00
44001;BME280;29660;42.892;24.710;2023-10-19T04:58:08;96947.84;;;4.42;100.00
44001;BME280;29660;42.892;24.710;2023-10-19T05:03:32;96888.41;;;4.12;100.00
44001;BME280;29660;42.892;24.710;2023-10-19T05:08:54;96940.53;;;4.49;100.00
44001;BME280;29660;42.892;24.710;2023-10-19T05:14:17;96939.59;;;4.60;100.00
44001;BME280;29660;42.892;24.710;2023-10-19T05:19:39;96838.78;;;4.09;100.00
44001;BME280;29660;42.892;24.710;2023-10-19T05:25:02;96893.84;;;4.55;100.00
44001;BME280;29660;42.892;24.710;2023-10-19T05:30:24;96928.75;;;4.89;100.00
44001;BME280;29660;42.892;24.710;2023-10-19T05:35:47;96933.88;;;5.01;100.00
44001;BME280;29660;42.892;24.710;2023-10-19T05:41:09;96886.72;;;4.87;100.00
44001;BME280;29660;42.892;24.710;2023-10-19T05:46:32;96675.69;;;3.79;100.00
44001;BME280;29660;42.892;24.710;2023-10-19T05:51:55;96832.88;;;4.99;100.00
44001;BME280;29660;42.892;24.710;2023-10-19T05:57:17;96930.72;;;5.88;100.00
44001;BME280;29660;42.892;24.710;2023-10-19T06:02:42;96832.94;;;5.56;100.00
44001;BME280;29660;42.892;24.710;2023-10-19T06:08:08;96922.19;;;6.39;100.00
44001;BME280;29660;42.892;24.710;2023-10-19T06:13:31;96918.03;;;6.84;100.00
44001;BME280;29660;42.892;24.710;2023-10-19T06:18:54;96914.81;;;7.33;100.00
44001;BME280;29660;42.892;24.710;2023-10-19T06:24:16;96895.69;;;7.46;100.00
44001;BME280;29660;42.892;24.710;2023-10-19T06:29:38;96913.63;;;7.85;100.00
44001;BME280;29660;42.892;24.710;2023-10-19T06:35:01;96913.50;;;8.16;100.00
44001;BME280;29660;42.892;24.710;2023-10-19T06:40:24;96903.56;;;8.47;100.00
44001;BME280;29660;42.892;24.710;2023-10-19T06:45:46;96822.84;;;8.27;100.00
44001;BME280;29660;42.892;24.710;2023-10-19T06:51:08;96773.13;;;8.38;100.00
44001;BME280;29660;42.892;24.710;2023-10-19T06:56:30;96889.53;;;9.63;100.00
44001;BME280;29660;42.892;24.710;2023-10-19T07:01:54;96504.25;;;7.59;100.00
44001;BME280;29660;42.892;24.710;2023-10-19T07:07:16;96738.72;;;9.53;100.00
44001;BME280;29660;42.892;24.710;2023-10-19T07:12:43;96764.66;;;10.23;100.00
44001;BME280;29660;42.892;24.710;2023-10-19T07:18:06;96856.59;;;11.42;100.00
44001;BME280;29660;42.892;24.710;2023-10-19T07:23:28;96764.69;;;11.43;99.17
44001;BME280;29660;42.892;24.710;2023-10-19T07:28:51;96735.53;;;11.61;91.08
44001;BME280;29660;42.892;24.710;2023-10-19T07:34:13;96726.28;;;12.17;90.83
44001;BME280;29660;42.892;24.710;2023-10-19T07:39:37;96829.63;;;13.25;86.21
44001;BME280;29660;42.892;24.710;2023-10-19T07:45:01;96822.97;;;13.54;82.65
44001;BME280;29660;42.892;24.710;2023-10-19T07:50:23;96723.41;;;13.20;78.90
44001;BME280;29660;42.892;24.710;2023-10-19T07:55:45;96820.47;;;14.32;76.00
44001;BME280;29660;42.892;24.710;2023-10-19T08:01:07;96814.94;;;14.80;71.27
44001;BME280;29660;42.892;24.710;2023-10-19T08:06:30;96806.63;;;15.20;68.84
44001;BME280;29660;42.892;24.710;2023-10-19T08:11:53;96819.19;;;15.45;65.43
44001;BME280;29660;42.892;24.710;2023-10-19T08:17:17;96805.44;;;15.85;66.47
44001;BME280;29660;42.892;24.710;2023-10-19T08:22:39;96797.47;;;16.18;60.57
44001;BME280;29660;42.892;24.710;2023-10-19T08:28:01;96782.94;;;16.53;57.42
44001;BME280;29660;42.892;24.710;2023-10-19T08:33:24;96779.72;;;16.80;56.85
44001;BME280;29660;42.892;24.710;2023-10-19T08:38:48;96731.03;;;16.98;55.90
44001;BME280;29660;42.892;24.710;2023-10-19T08:44:10;96760.97;;;17.41;51.35
44001;BME280;29660;42.892;24.710;2023-10-19T08:49:32;96775.78;;;17.72;50.00
44001;BME280;29660;42.892;24.710;2023-10-19T08:54:54;96765.44;;;17.99;48.64
44001;BME280;29660;42.892;24.710;2023-10-19T09:00:18;96700.94;;;17.94;48.63
44001;BME280;29660;42.892;24.710;2023-10-19T09:05:41;96762.28;;;18.49;46.19
44001;BME280;29660;42.892;24.710;2023-10-19T09:11:12;96755.34;;;18.64;45.54
44001;BME280;29660;42.892;24.710;2023-10-19T09:16:34;96752.06;;;18.99;45.62
44001;BME280;29660;42.892;24.710;2023-10-19T09:21:59;96759.63;;;19.09;43.98
44001;BME280;29660;42.892;24.710;2023-10-19T09:27:22;96667.06;;;18.52;43.52
44001;BME280;29660;42.892;24.710;2023-10-19T09:32:47;96756.25;;;19.28;43.54
44001;BME280;29660;42.892;24.710;2023-10-19T09:38:10;96752.25;;;19.22;44.05
44001;BME280;29660;42.892;24.710;2023-10-19T09:43:37;96770.81;;;19.55;45.06
44001;BME280;29660;42.892;24.710;2023-10-19T09:49:03;96644.06;;;18.58;44.60
44001;BME280;29660;42.892;24.710;2023-10-19T10:00:10;96632.47;;;18.42;45.76
44001;BME280;29660;42.892;24.710;2023-10-19T10:11:16;96728.91;;;19.49;44.22
44001;BME280;29660;42.892;24.710;2023-10-19T10:16:38;96294.66;;;16.98;44.72
44001;BME280;29660;42.892;24.710;2023-10-19T10:22:11;96628.09;;;19.32;43.70
44001;BME280;29660;42.892;24.710;2023-10-19T10:27:50;96516.06;;;18.95;44.08
44001;BME280;29660;42.892;24.710;2023-10-19T10:39:02;96593.22;;;20.21;42.53
44001;BME280;29660;42.892;24.710;2023-10-19T10:50:02;96668.47;;;21.19;41.68
44001;BME280;29660;42.892;24.710;2023-10-19T10:55:25;96672.41;;;21.48;41.70
44001;BME280;29660;42.892;24.710;2023-10-19T11:00:48;96658.94;;;21.55;40.43
44001;BME280;29660;42.892;24.710;2023-10-19T11:06:13;96652.38;;;21.56;41.34
44001;BME280;29660;42.892;24.710;2023-10-19T11:11:38;96654.81;;;21.65;41.08
44001;BME280;29660;42.892;24.710;2023-10-19T11:17:13;96618.53;;;21.47;41.70
44001;BME280;29660;42.892;24.710;2023-10-19T11:22:47;96566.50;;;21.15;41.39
44001;BME280;29660;42.892;24.710;2023-10-19T11:28:17;96651.09;;;21.77;41.72
44001;BME280;29660;42.892;24.710;2023-10-19T11:33:42;96548.75;;;21.21;41.64
44001;BME280;29660;42.892;24.710;2023-10-19T11:39:05;96637.16;;;21.78;41.55
44001;BME280;29660;42.892;24.710;2023-10-19T11:44:30;96607.50;;;21.63;41.29
44001;BME280;29660;42.892;24.710;2023-10-19T11:49:52;96606.06;;;21.72;41.67
44001;BME280;29660;42.892;24.710;2023-10-19T11:55:16;96599.91;;;21.75;41.34
44001;BME280;29660;42.892;24.710;2023-10-19T12:00:38;96523.13;;;21.15;41.71
44001;BME280;29660;42.892;24.710;2023-10-19T12:06:00;96597.41;;;21.63;40.71
44001;BME280;29660;42.892;24.710;2023-10-19T12:11:26;96596.88;;;21.50;40.52
44001;BME280;29660;42.892;24.710;2023-10-19T12:16:48;96587.97;;;21.53;40.63
44001;BME280;29660;42.892;24.710;2023-10-19T12:22:10;96583.03;;;21.59;40.90
44001;BME280;29660;42.892;24.710;2023-10-19T12:27:33;96575.56;;;21.52;41.18
44001;BME280;29660;42.892;24.710;2023-10-19T12:32:55;96576.72;;;21.51;41.21
44001;BME280;29660;42.892;24.710;2023-10-19T12:38:18;96584.19;;;21.58;41.28
44001;BME280;29660;42.892;24.710;2023-10-19T12:43:42;96567.13;;;21.61;41.31
44001;BME280;29660;42.892;24.710;2023-10-19T12:49:04;96544.22;;;21.28;41.87
44001;BME280;29660;42.892;24.710;2023-10-19T12:54:30;96571.78;;;21.30;42.23
44001;BME280;29660;42.892;24.710;2023-10-19T12:59:54;96485.97;;;20.62;42.29
44001;BME280;29660;42.892;24.710;2023-10-19T13:05:16;96561.44;;;21.13;42.32
44001;BME280;29660;42.892;24.710;2023-10-19T13:10:43;96549.25;;;21.00;43.14
44001;BME280;29660;42.892;24.710;2023-10-19T13:16:05;96543.00;;;20.96;43.49
44001;BME280;29660;42.892;24.710;2023-10-19T13:21:28;96526.78;;;20.99;43.32
44001;BME280;29660;42.892;24.710;2023-10-19T13:26:54;96540.13;;;21.12;43.19
44001;BME280;29660;42.892;24.710;2023-10-19T13:32:16;96502.34;;;20.96;43.34
44001;BME280;29660;42.892;24.710;2023-10-19T13:37:39;96513.69;;;21.05;43.19
44001;BME280;29660;42.892;24.710;2023-10-19T13:43:02;96497.75;;;21.00;42.80
44001;BME280;29660;42.892;24.710;2023-10-19T13:48:26;96489.56;;;20.96;42.61
44001;BME280;29660;42.892;24.710;2023-10-19T13:53:48;96503.84;;;20.93;42.60
44001;BME280;29660;42.892;24.710;2023-10-19T13:59:12;96513.06;;;20.89;43.03
44001;BME280;29660;42.892;24.710;2023-10-19T14:04:35;96500.94;;;20.79;43.05
44001;BME280;29660;42.892;24.710;2023-10-19T14:09:57;96481.50;;;20.73;43.17
44001;BME280;29660;42.892;24.710;2023-10-19T14:15:19;96480.66;;;20.69;43.23
44001;BME280;29660;42.892;24.710;2023-10-19T14:20:42;96482.84;;;20.60;44.51
44001;BME280;29660;42.892;24.710;2023-10-19T14:26:04;96485.75;;;20.48;45.26
44001;BME280;29660;42.892;24.710;2023-10-19T14:31:26;96477.38;;;20.33;46.12
44001;BME280;29660;42.892;24.710;2023-10-19T14:36:48;96472.09;;;20.18;46.27
44001;BME280;29660;42.892;24.710;2023-10-19T14:42:10;96368.53;;;19.32;47.01
44001;BME280;29660;42.892;24.710;2023-10-19T14:47:33;96188.41;;;17.97;47.07
44001;BME280;29660;42.892;24.710;2023-10-19T14:52:55;96456.50;;;19.65;47.63
44001;BME280;29660;42.892;24.710;2023-10-19T14:58:18;96480.03;;;19.45;48.35
44001;BME280;29660;42.892;24.710;2023-10-19T15:03:40;96465.72;;;19.25;49.12
44001;BME280;29660;42.892;24.710;2023-10-19T15:09:02;96465.31;;;19.04;49.73
44001;BME280;29660;42.892;24.710;2023-10-19T15:14:25;96457.09;;;18.81;51.34
44001;BME280;29660;42.892;24.710;2023-10-19T15:19:51;96399.53;;;18.10;52.73
44001;BME280;29660;42.892;24.710;2023-10-19T15:25:14;96419.38;;;17.86;53.91
44001;BME280;29660;42.892;24.710;2023-10-19T15:30:36;96415.69;;;17.62;55.27
44001;BME280;29660;42.892;24.710;2023-10-19T15:35:58;96320.88;;;16.73;56.49
44001;BME280;29660;42.892;24.710;2023-10-19T15:41:20;96449.22;;;17.33;58.33
44001;BME280;29660;42.892;24.710;2023-10-19T15:46:43;96447.81;;;17.11;60.23
44001;BME280;29660;42.892;24.710;2023-10-19T15:52:06;96445.75;;;16.92;61.97
44001;BME280;29660;42.892;24.710;2023-10-19T15:57:28;96457.44;;;16.72;64.48
44001;BME280;29660;42.892;24.710;2023-10-19T16:02:52;96449.38;;;16.48;67.56
44001;BME280;29660;42.892;24.710;2023-10-19T16:08:14;96453.53;;;16.33;68.09
44001;BME280;29660;42.892;24.710;2023-10-19T16:13:37;96465.88;;;16.09;70.51
44001;BME280;29660;42.892;24.710;2023-10-19T16:19:01;96386.69;;;15.28;72.04
44001;BME280;29660;42.892;24.710;2023-10-19T16:24:24;96398.06;;;15.13;75.40
44001;BME280;29660;42.892;24.710;2023-10-19T16:29:47;96491.22;;;15.42;79.34
44001;BME280;29660;42.892;24.710;2023-10-19T16:35:09;96462.94;;;15.03;81.23
44001;BME280;29660;42.892;24.710;2023-10-19T16:40:32;96497.66;;;15.08;81.32
44001;BME280;29660;42.892;24.710;2023-10-19T16:45:54;96455.34;;;14.63;83.48
44001;BME280;29660;42.892;24.710;2023-10-19T16:51:16;96473.22;;;14.50;83.84
44001;BME280;29660;42.892;24.710;2023-10-19T16:56:39;96508.31;;;14.75;84.78
44001;BME280;29660;42.892;24.710;2023-10-19T17:02:03;96512.00;;;14.61;86.03
44001;BME280;29660;42.892;24.710;2023-10-19T17:07:25;96428.31;;;14.09;86.73
44001;BME280;29660;42.892;24.710;2023-10-19T17:12:48;96487.28;;;14.47;87.06
44001;BME280;29660;42.892;24.710;2023-10-19T17:18:10;96384.81;;;13.65;88.21
44001;BME280;29660;42.892;24.710;2023-10-19T17:23:33;96489.09;;;14.25;88.80
44001;BME280;29660;42.892;24.710;2023-10-19T17:28:55;96085.91;;;11.46;90.93
44001;BME280;29660;42.892;24.710;2023-10-19T17:34:19;96475.84;;;13.82;91.32
44001;BME280;29660;42.892;24.710;2023-10-19T17:39:41;96308.63;;;12.72;92.55
44001;BME280;29660;42.892;24.710;2023-10-19T17:45:04;96470.06;;;13.71;92.29
44001;BME280;29660;42.892;24.710;2023-10-19T17:50:26;96452.91;;;13.64;94.46
44001;BME280;29660;42.892;24.710;2023-10-19T17:55:51;96454.34;;;13.53;95.58
44001;BME280;29660;42.892;24.710;2023-10-19T18:01:18;96456.72;;;13.45;96.04
44001;BME280;29660;42.892;24.710;2023-10-19T18:06:40;96448.72;;;13.37;97.16
44001;BME280;29660;42.892;24.710;2023-10-19T18:12:04;96345.59;;;12.52;98.11
44001;BME280;29660;42.892;24.710;2023-10-19T18:17:27;96340.59;;;12.42;98.93
44001;BME280;29660;42.892;24.710;2023-10-19T18:22:49;96453.59;;;13.09;100.00
44001;BME280;29660;42.892;24.710;2023-10-19T18:28:12;96461.78;;;13.03;99.92
44001;BME280;29660;42.892;24.710;2023-10-19T18:33:35;96446.81;;;12.85;100.00
44001;BME280;29660;42.892;24.710;2023-10-19T18:38:57;96366.22;;;12.43;100.00
44001;BME280;29660;42.892;24.710;2023-10-19T18:44:19;96323.13;;;12.19;100.00
44001;BME280;29660;42.892;24.710;2023-10-19T18:49:41;96330.50;;;12.22;100.00
44001;BME280;29660;42.892;24.710;2023-10-19T18:55:08;96447.94;;;13.01;100.00
44001;BME280;29660;42.892;24.710;2023-10-19T19:00:31;96354.41;;;12.27;100.00
44001;BME280;29660;42.892;24.710;2023-10-19T19:05:56;96454.22;;;12.88;100.00
44001;BME280;29660;42.892;24.710;2023-10-19T19:11:21;96360.38;;;12.07;100.00
44001;BME280;29660;42.892;24.710;2023-10-19T19:16:43;96432.59;;;12.41;100.00
44001;BME280;29660;42.892;24.710;2023-10-19T19:22:07;96481.88;;;12.58;100.00
44001;BME280;29660;42.892;24.710;2023-10-19T19:27:30;96441.97;;;12.21;100.00
44001;BME280;29660;42.892;24.710;2023-10-19T19:32:52;96495.53;;;12.47;100.00
44001;BME280;29660;42.892;24.710;2023-10-19T19:38:15;96476.78;;;12.30;100.00
44001;BME280;29660;42.892;24.710;2023-10-19T19:43:37;96493.28;;;12.32;100.00
44001;BME280;29660;42.892;24.710;2023-10-19T19:49:01;96486.19;;;12.19;100.00
44001;BME280;29660;42.892;24.710;2023-10-19T19:54:27;96477.47;;;12.04;100.00
44001;BME280;29660;42.892;24.710;2023-10-19T19:59:50;96496.44;;;11.94;100.00
44001;BME280;29660;42.892;24.710;2023-10-19T20:05:17;96465.63;;;11.88;100.00
44001;BME280;29660;42.892;24.710;2023-10-19T20:10:43;96353.34;;;11.09;100.00
44001;BME280;29660;42.892;24.710;2023-10-19T20:16:06;96475.91;;;11.81;100.00
44001;BME280;29660;42.892;24.710;2023-10-19T20:21:29;96476.53;;;11.78;100.00
44001;BME280;29660;42.892;24.710;2023-10-19T20:26:53;96468.03;;;11.76;100.00
44001;BME280;29660;42.892;24.710;2023-10-19T20:32:15;96334.41;;;10.96;100.00
44001;BME280;29660;42.892;24.710;2023-10-19T20:37:38;96318.25;;;10.93;100.00
44001;BME280;29660;42.892;24.710;2023-10-19T20:43:01;96367.38;;;11.23;100.00
44001;BME280;29660;42.892;24.710;2023-10-19T20:48:26;96281.53;;;10.67;100.00
44001;BME280;29660;42.892;24.710;2023-10-19T20:53:49;96399.63;;;11.35;100.00
44001;BME280;29660;42.892;24.710;2023-10-19T20:59:11;96417.50;;;11.57;100.00
44001;BME280;29660;42.892;24.710;2023-10-19T21:04:33;96424.53;;;11.44;100.00
44001;BME280;29660;42.892;24.710;2023-10-19T21:09:57;96415.72;;;11.44;100.00
44001;BME280;29660;42.892;24.710;2023-10-19T21:15:20;96420.75;;;11.45;100.00
44001;BME280;29660;42.892;24.710;2023-10-19T21:20:42;96412.09;;;11.40;100.00
44001;BME280;29660;42.892;24.710;2023-10-19T21:26:05;96409.03;;;11.24;100.00
44001;BME280;29660;42.892;24.710;2023-10-19T21:31:27;96414.34;;;11.24;100.00
44001;BME280;29660;42.892;24.710;2023-10-19T21:36:49;96414.19;;;11.20;100.00
44001;BME280;29660;42.892;24.710;2023-10-19T21:42:11;96413.22;;;11.16;100.00
44001;BME280;29660;42.892;24.710;2023-10-19T21:47:33;96360.63;;;10.72;100.00
44001;BME280;29660;42.892;24.710;2023-10-19T21:52:56;95992.16;;;8.28;100.00
44001;BME280;29660;42.892;24.710;2023-10-19T21:58:18;96412.59;;;10.97;100.00
44001;BME280;29660;42.892;24.710;2023-10-19T22:03:40;96419.13;;;10.91;100.00
44001;BME280;29660;42.892;24.710;2023-10-19T22:09:03;96301.41;;;10.02;100.00
44001;BME280;29660;42.892;24.710;2023-10-19T22:14:27;96418.31;;;10.68;100.00
44001;BME280;29660;42.892;24.710;2023-10-19T22:19:50;96411.28;;;10.72;100.00
44001;BME280;29660;42.892;24.710;2023-10-19T22:25:14;96344.00;;;10.30;100.00
44001;BME280;29660;42.892;24.710;2023-10-19T22:30:40;96241.13;;;9.56;100.00
44001;BME280;29660;42.892;24.710;2023-10-19T22:36:02;96265.28;;;9.60;100.00
44001;BME280;29660;42.892;24.710;2023-10-19T22:41:24;96417.16;;;10.60;100.00
44001;BME280;29660;42.892;24.710;2023-10-19T22:46:47;96418.06;;;10.55;100.00
44001;BME280;29660;42.892;24.710;2023-10-19T22:52:10;96296.91;;;9.75;100.00
44001;BME280;29660;42.892;24.710;2023-10-19T22:57:32;96243.00;;;9.42;100.00
44001;BME280;29660;42.892;24.710;2023-10-19T23:02:55;96403.00;;;10.37;100.00
44001;BME280;29660;42.892;24.710;2023-10-19T23:08:17;96418.38;;;10.40;100.00
44001;BME280;29660;42.892;24.710;2023-10-19T23:13:40;96334.16;;;9.89;100.00
44001;BME280;29660;42.892;24.710;2023-10-19T23:19:06;96404.00;;;10.27;100.00
44001;BME280;29660;42.892;24.710;2023-10-19T23:24:33;96197.69;;;8.78;100.00
44001;BME280;29660;42.892;24.710;2023-10-19T23:29:55;96405.38;;;9.97;100.00
44001;BME280;29660;42.892;24.710;2023-10-19T23:35:17;96406.88;;;10.03;100.00
44001;BME280;29660;42.892;24.710;2023-10-19T23:40:39;96300.00;;;9.41;100.00
44001;BME280;29660;42.892;24.710;2023-10-19T23:46:05;96208.75;;;8.85;100.00
44001;BME280;29660;42.892;24.710;2023-10-19T23:51:27;96387.44;;;9.89;100.00
44001;BME280;29660;42.892;24.710;2023-10-19T23:56:52;96365.94;;;9.86;100.00
